sensor_id;sensor_type;location;lat;lon;timestamp;temperature;humidity
12156;DHT22;6141;49.092;8.516;2022-10-16T00:01:07;18.90;85.20
12156;DHT22;6141;49.092;8.516;2022-10-16T00:04:00;19.00;85.50
12156;DHT22;6141;49.092;8.516;2022-10-16T00:06:30;19.10;85.40
12156;DHT22;6141;49.092;8.516;2022-10-16T00:08:59;19.00;85.20
12156;DHT22;6141;49.092;8.516;2022-10-16T00:11:32;19.10;85.30
12156;DHT22;6141;49.092;8.516;2022-10-16T00:14:08;19.00;85.40
12156;DHT22;6141;49.092;8.516;2022-10-16T00:16:38;19.00;85.50
12156;DHT22;6141;49.092;8.516;2022-10-16T00:19:14;19.00;85.40
12156;DHT22;6141;49.092;8.516;2022-10-16T00:22:25;19.00;85.80
12156;DHT22;6141;49.092;8.516;2022-10-16T01:34:53;18.80;88.10
12156;DHT22;6141;49.092;8.516;2022-10-16T01:38:20;18.80;87.60
12156;DHT22;6141;49.092;8.516;2022-10-16T01:47:00;18.80;87.60
12156;DHT22;6141;49.092;8.516;2022-10-16T01:55:37;18.80;87.20
12156;DHT22;6141;49.092;8.516;2022-10-16T01:58:16;18.80;87.10
12156;DHT22;6141;49.092;8.516;2022-10-16T02:00:45;18.80;86.60
12156;DHT22;6141;49.092;8.516;2022-10-16T02:03:16;18.70;86.50
12156;DHT22;6141;49.092;8.516;2022-10-16T02:05:49;18.70;86.60
12156;DHT22;6141;49.092;8.516;2022-10-16T02:08:19;18.80;86.60
12156;DHT22;6141;49.092;8.516;2022-10-16T02:10:49;18.80;86.30
12156;DHT22;6141;49.092;8.516;2022-10-16T02:13:23;18.80;86.70
12156;DHT22;6141;49.092;8.516;2022-10-16T02:16:00;18.90;86.60
12156;DHT22;6141;49.092;8.516;2022-10-16T02:18:29;18.70;86.10
12156;DHT22;6141;49.092;8.516;2022-10-16T02:21:00;18.80;86.80
12156;DHT22;6141;49.092;8.516;2022-10-16T02:23:35;18.80;86.30
12156;DHT22;6141;49.092;8.516;2022-10-16T02:26:13;18.80;86.10
12156;DHT22;6141;49.092;8.516;2022-10-16T02:28:45;18.80;86.20
12156;DHT22;6141;49.092;8.516;2022-10-16T02:31:22;18.80;85.60
12156;DHT22;6141;49.092;8.516;2022-10-16T02:34:27;18.70;85.60
12156;DHT22;6141;49.092;8.516;2022-10-16T02:37:03;18.70;85.50
12156;DHT22;6141;49.092;8.516;2022-10-16T02:39:40;18.60;84.50
12156;DHT22;6141;49.092;8.516;2022-10-16T02:42:12;18.60;84.50
12156;DHT22;6141;49.092;8.516;2022-10-16T02:44:40;18.50;85.10
12156;DHT22;6141;49.092;8.516;2022-10-16T02:47:09;18.50;85.30
12156;DHT22;6141;49.092;8.516;2022-10-16T02:49:39;18.40;85.50
12156;DHT22;6141;49.092;8.516;2022-10-16T02:52:12;18.30;85.80
12156;DHT22;6141;49.092;8.516;2022-10-16T02:54:41;18.50;86.10
12156;DHT22;6141;49.092;8.516;2022-10-16T02:57:11;18.40;85.20
12156;DHT22;6141;49.092;8.516;2022-10-16T02:59:40;18.40;85.60
12156;DHT22;6141;49.092;8.516;2022-10-16T03:02:09;18.40;85.60
12156;DHT22;6141;49.092;8.516;2022-10-16T03:04:43;18.50;85.80
12156;DHT22;6141;49.092;8.516;2022-10-16T03:07:15;18.60;86.30
12156;DHT22;6141;49.092;8.516;2022-10-16T03:09:43;18.50;86.10
12156;DHT22;6141;49.092;8.516;2022-10-16T03:12:15;18.40;86.20
12156;DHT22;6141;49.092;8.516;2022-10-16T03:14:43;18.40;86.40
12156;DHT22;6141;49.092;8.516;2022-10-16T03:17:12;18.50;86.10
12156;DHT22;6141;49.092;8.516;2022-10-16T03:19:43;18.50;85.60
12156;DHT22;6141;49.092;8.516;2022-10-16T03:22:11;18.40;85.80
12156;DHT22;6141;49.092;8.516;2022-10-16T03:24:40;18.30;86.20
12156;DHT22;6141;49.092;8.516;2022-10-16T03:27:12;18.40;86.50
12156;DHT22;6141;49.092;8.516;2022-10-16T03:29:41;18.20;86.30
12156;DHT22;6141;49.092;8.516;2022-10-16T03:32:10;18.20;86.60
12156;DHT22;6141;49.092;8.516;2022-10-16T03:34:38;18.20;86.80
12156;DHT22;6141;49.092;8.516;2022-10-16T03:37:07;18.30;87.00
12156;DHT22;6141;49.092;8.516;2022-10-16T03:39:35;18.40;87.00
12156;DHT22;6141;49.092;8.516;2022-10-16T03:42:03;18.50;87.20
12156;DHT22;6141;49.092;8.516;2022-10-16T03:44:33;18.40;86.40
12156;DHT22;6141;49.092;8.516;2022-10-16T03:47:01;18.40;86.50
12156;DHT22;6141;49.092;8.516;2022-10-16T03:49:30;18.30;86.70
12156;DHT22;6141;49.092;8.516;2022-10-16T03:51:58;18.20;86.90
12156;DHT22;6141;49.092;8.516;2022-10-16T03:54:26;18.10;87.20
12156;DHT22;6141;49.092;8.516;2022-10-16T03:56:54;18.20;87.80
12156;DHT22;6141;49.092;8.516;2022-10-16T03:59:23;18.30;87.80
12156;DHT22;6141;49.092;8.516;2022-10-16T04:01:53;18.30;87.60
12156;DHT22;6141;49.092;8.516;2022-10-16T04:04:21;18.30;87.40
12156;DHT22;6141;49.092;8.516;2022-10-16T04:06:49;18.30;87.50
12156;DHT22;6141;49.092;8.516;2022-10-16T04:09:17;18.30;87.20
12156;DHT22;6141;49.092;8.516;2022-10-16T04:11:46;18.40;87.00
12156;DHT22;6141;49.092;8.516;2022-10-16T04:14:14;18.40;86.80
12156;DHT22;6141;49.092;8.516;2022-10-16T04:16:42;18.50;86.70
12156;DHT22;6141;49.092;8.516;2022-10-16T04:19:12;18.60;86.80
12156;DHT22;6141;49.092;8.516;2022-10-16T04:21:41;18.50;86.60
12156;DHT22;6141;49.092;8.516;2022-10-16T04:24:11;18.60;86.70
12156;DHT22;6141;49.092;8.516;2022-10-16T04:26:40;18.50;86.60
12156;DHT22;6141;49.092;8.516;2022-10-16T04:29:08;18.50;86.70
12156;DHT22;6141;49.092;8.516;2022-10-16T04:31:36;18.50;86.00
12156;DHT22;6141;49.092;8.516;2022-10-16T04:34:05;18.40;86.40
12156;DHT22;6141;49.092;8.516;2022-10-16T04:36:34;18.50;86.60
12156;DHT22;6141;49.092;8.516;2022-10-16T04:39:03;18.60;86.50
12156;DHT22;6141;49.092;8.516;2022-10-16T04:41:31;18.50;86.60
12156;DHT22;6141;49.092;8.516;2022-10-16T04:43:59;18.40;86.40
12156;DHT22;6141;49.092;8.516;2022-10-16T04:46:28;18.30;86.30
12156;DHT22;6141;49.092;8.516;2022-10-16T04:48:56;18.30;86.20
12156;DHT22;6141;49.092;8.516;2022-10-16T04:51:24;18.30;86.60
12156;DHT22;6141;49.092;8.516;2022-10-16T04:53:55;18.40;87.10
12156;DHT22;6141;49.092;8.516;2022-10-16T04:56:23;18.40;87.10
12156;DHT22;6141;49.092;8.516;2022-10-16T04:58:51;18.50;87.10
12156;DHT22;6141;49.092;8.516;2022-10-16T05:01:19;18.50;86.70
12156;DHT22;6141;49.092;8.516;2022-10-16T05:03:48;18.60;86.40
12156;DHT22;6141;49.092;8.516;2022-10-16T05:06:16;18.40;86.40
12156;DHT22;6141;49.092;8.516;2022-10-16T05:08:44;18.40;86.80
12156;DHT22;6141;49.092;8.516;2022-10-16T05:11:14;18.30;86.40
12156;DHT22;6141;49.092;8.516;2022-10-16T05:13:42;18.40;87.00
12156;DHT22;6141;49.092;8.516;2022-10-16T05:16:10;18.20;86.40
12156;DHT22;6141;49.092;8.516;2022-10-16T05:18:38;18.20;87.30
12156;DHT22;6141;49.092;8.516;2022-10-16T05:21:07;18.10;86.70
12156;DHT22;6141;49.092;8.516;2022-10-16T05:23:35;18.20;87.10
12156;DHT22;6141;49.092;8.516;2022-10-16T05:26:04;18.20;86.60
12156;DHT22;6141;49.092;8.516;2022-10-16T05:28:34;18.10;86.70
12156;DHT22;6141;49.092;8.516;2022-10-16T05:31:04;18.30;87.20
12156;DHT22;6141;49.092;8.516;2022-10-16T05:33:33;18.20;86.90
12156;DHT22;6141;49.092;8.516;2022-10-16T05:36:03;18.30;86.20
12156;DHT22;6141;49.092;8.516;2022-10-16T05:38:31;18.20;86.30
12156;DHT22;6141;49.092;8.516;2022-10-16T05:40:59;18.30;86.40
12156;DHT22;6141;49.092;8.516;2022-10-16T05:43:28;18.20;86.70
12156;DHT22;6141;49.092;8.516;2022-10-16T05:46:00;18.20;86.60
12156;DHT22;6141;49.092;8.516;2022-10-16T05:48:28;18.20;86.80
12156;DHT22;6141;49.092;8.516;2022-10-16T05:50:57;18.20;86.90
12156;DHT22;6141;49.092;8.516;2022-10-16T05:53:27;18.20;87.20
12156;DHT22;6141;49.092;8.516;2022-10-16T05:55:56;18.20;87.20
12156;DHT22;6141;49.092;8.516;2022-10-16T05:58:28;18.20;86.90
12156;DHT22;6141;49.092;8.516;2022-10-16T06:01:00;18.10;86.60
12156;DHT22;6141;49.092;8.516;2022-10-16T06:03:28;18.30;86.70
12156;DHT22;6141;49.092;8.516;2022-10-16T06:05:57;18.30;86.50
12156;DHT22;6141;49.092;8.516;2022-10-16T06:08:25;18.10;86.00
12156;DHT22;6141;49.092;8.516;2022-10-16T06:11:01;18.10;86.40
12156;DHT22;6141;49.092;8.516;2022-10-16T06:13:30;18.10;87.00
12156;DHT22;6141;49.092;8.516;2022-10-16T06:16:01;18.10;87.30
12156;DHT22;6141;49.092;8.516;2022-10-16T06:18:29;18.10;87.40
12156;DHT22;6141;49.092;8.516;2022-10-16T06:20:58;18.10;87.60
12156;DHT22;6141;49.092;8.516;2022-10-16T06:23:28;18.20;87.70
12156;DHT22;6141;49.092;8.516;2022-10-16T06:26:04;18.30;87.80
12156;DHT22;6141;49.092;8.516;2022-10-16T06:28:33;18.30;87.60
12156;DHT22;6141;49.092;8.516;2022-10-16T06:31:04;18.30;87.10
12156;DHT22;6141;49.092;8.516;2022-10-16T06:33:37;18.20;86.90
12156;DHT22;6141;49.092;8.516;2022-10-16T06:36:07;18.00;87.30
12156;DHT22;6141;49.092;8.516;2022-10-16T06:38:36;18.10;87.50
12156;DHT22;6141;49.092;8.516;2022-10-16T06:41:06;18.00;87.70
12156;DHT22;6141;49.092;8.516;2022-10-16T06:43:35;18.10;87.90
12156;DHT22;6141;49.092;8.516;2022-10-16T06:46:06;18.10;87.70
12156;DHT22;6141;49.092;8.516;2022-10-16T06:48:35;18.30;88.10
12156;DHT22;6141;49.092;8.516;2022-10-16T06:51:04;18.20;87.80
12156;DHT22;6141;49.092;8.516;2022-10-16T06:53:34;18.10;87.80
12156;DHT22;6141;49.092;8.516;2022-10-16T06:56:21;18.10;87.90
12156;DHT22;6141;49.092;8.516;2022-10-16T06:58:50;18.20;88.10
12156;DHT22;6141;49.092;8.516;2022-10-16T07:01:21;18.20;88.00
12156;DHT22;6141;49.092;8.516;2022-10-16T07:03:50;18.10;88.00
12156;DHT22;6141;49.092;8.516;2022-10-16T07:06:20;18.10;88.70
12156;DHT22;6141;49.092;8.516;2022-10-16T07:08:49;18.30;88.80
12156;DHT22;6141;49.092;8.516;2022-10-16T07:11:19;18.20;88.40
12156;DHT22;6141;49.092;8.516;2022-10-16T07:13:48;18.30;88.90
12156;DHT22;6141;49.092;8.516;2022-10-16T07:16:24;18.30;88.60
12156;DHT22;6141;49.092;8.516;2022-10-16T07:18:53;18.50;88.30
12156;DHT22;6141;49.092;8.516;2022-10-16T07:21:26;18.60;88.40
12156;DHT22;6141;49.092;8.516;2022-10-16T07:23:57;18.50;88.30
12156;DHT22;6141;49.092;8.516;2022-10-16T07:26:27;18.70;88.50
12156;DHT22;6141;49.092;8.516;2022-10-16T07:28:55;18.80;88.80
12156;DHT22;6141;49.092;8.516;2022-10-16T07:31:25;18.90;87.50
12156;DHT22;6141;49.092;8.516;2022-10-16T07:33:54;18.90;87.20
12156;DHT22;6141;49.092;8.516;2022-10-16T07:36:22;19.00;87.20
12156;DHT22;6141;49.092;8.516;2022-10-16T07:38:50;19.00;88.10
12156;DHT22;6141;49.092;8.516;2022-10-16T07:41:24;19.00;87.90
12156;DHT22;6141;49.092;8.516;2022-10-16T07:43:53;19.00;87.70
12156;DHT22;6141;49.092;8.516;2022-10-16T07:46:22;19.00;87.50
12156;DHT22;6141;49.092;8.516;2022-10-16T07:48:52;19.00;87.00
12156;DHT22;6141;49.092;8.516;2022-10-16T07:51:21;19.20;87.30
12156;DHT22;6141;49.092;8.516;2022-10-16T07:53:50;19.30;87.00
12156;DHT22;6141;49.092;8.516;2022-10-16T07:56:20;19.40;86.70
12156;DHT22;6141;49.092;8.516;2022-10-16T07:58:49;19.30;86.30
12156;DHT22;6141;49.092;8.516;2022-10-16T08:01:18;19.30;86.70
12156;DHT22;6141;49.092;8.516;2022-10-16T08:03:50;19.40;86.90
12156;DHT22;6141;49.092;8.516;2022-10-16T08:06:21;19.30;87.10
12156;DHT22;6141;49.092;8.516;2022-10-16T08:08:54;19.30;87.40
12156;DHT22;6141;49.092;8.516;2022-10-16T08:11:23;19.40;87.90
12156;DHT22;6141;49.092;8.516;2022-10-16T08:13:51;19.40;87.90
12156;DHT22;6141;49.092;8.516;2022-10-16T08:16:21;19.50;86.30
12156;DHT22;6141;49.092;8.516;2022-10-16T08:18:50;19.60;86.70
12156;DHT22;6141;49.092;8.516;2022-10-16T08:21:23;19.60;86.10
12156;DHT22;6141;49.092;8.516;2022-10-16T08:23:53;19.80;87.00
12156;DHT22;6141;49.092;8.516;2022-10-16T08:26:25;19.80;86.30
12156;DHT22;6141;49.092;8.516;2022-10-16T08:28:54;19.90;85.40
12156;DHT22;6141;49.092;8.516;2022-10-16T08:31:25;19.90;85.20
12156;DHT22;6141;49.092;8.516;2022-10-16T08:33:54;19.90;84.90
12156;DHT22;6141;49.092;8.516;2022-10-16T08:36:24;19.90;85.70
12156;DHT22;6141;49.092;8.516;2022-10-16T08:38:55;19.90;85.40
12156;DHT22;6141;49.092;8.516;2022-10-16T08:41:35;19.90;86.40
12156;DHT22;6141;49.092;8.516;2022-10-16T08:44:28;19.80;87.00
12156;DHT22;6141;49.092;8.516;2022-10-16T08:47:02;19.80;86.30
12156;DHT22;6141;49.092;8.516;2022-10-16T08:49:33;19.80;86.40
12156;DHT22;6141;49.092;8.516;2022-10-16T08:52:06;19.90;86.20
12156;DHT22;6141;49.092;8.516;2022-10-16T08:54:42;19.80;86.30
12156;DHT22;6141;49.092;8.516;2022-10-16T08:57:14;19.80;85.60
12156;DHT22;6141;49.092;8.516;2022-10-16T08:59:52;19.80;86.10
12156;DHT22;6141;49.092;8.516;2022-10-16T09:02:29;19.70;86.00
12156;DHT22;6141;49.092;8.516;2022-10-16T09:05:20;19.80;85.80
12156;DHT22;6141;49.092;8.516;2022-10-16T09:08:00;19.90;84.90
12156;DHT22;6141;49.092;8.516;2022-10-16T09:10:46;20.10;85.10
12156;DHT22;6141;49.092;8.516;2022-10-16T09:13:26;19.90;86.60
12156;DHT22;6141;49.092;8.516;2022-10-16T09:16:01;19.80;84.80
12156;DHT22;6141;49.092;8.516;2022-10-16T09:18:37;20.00;85.00
12156;DHT22;6141;49.092;8.516;2022-10-16T09:21:13;19.90;84.90
12156;DHT22;6141;49.092;8.516;2022-10-16T09:23:44;19.90;84.90
12156;DHT22;6141;49.092;8.516;2022-10-16T09:26:15;19.90;86.40
12156;DHT22;6141;49.092;8.516;2022-10-16T09:29:34;19.90;87.20
12156;DHT22;6141;49.092;8.516;2022-10-16T09:32:59;20.00;85.00
12156;DHT22;6141;49.092;8.516;2022-10-16T09:35:32;20.10;84.40
12156;DHT22;6141;49.092;8.516;2022-10-16T09:38:03;20.20;83.90
12156;DHT22;6141;49.092;8.516;2022-10-16T09:40:36;20.20;83.50
12156;DHT22;6141;49.092;8.516;2022-10-16T09:43:19;20.60;86.10
12156;DHT22;6141;49.092;8.516;2022-10-16T09:45:57;20.90;83.30
12156;DHT22;6141;49.092;8.516;2022-10-16T09:48:30;20.90;83.70
12156;DHT22;6141;49.092;8.516;2022-10-16T09:51:05;20.90;80.80
12156;DHT22;6141;49.092;8.516;2022-10-16T09:53:42;21.10;80.70
12156;DHT22;6141;49.092;8.516;2022-10-16T09:56:22;21.10;81.60
12156;DHT22;6141;49.092;8.516;2022-10-16T09:58:53;21.00;82.80
12156;DHT22;6141;49.092;8.516;2022-10-16T10:01:30;21.00;81.50
12156;DHT22;6141;49.092;8.516;2022-10-16T10:04:08;21.20;79.90
12156;DHT22;6141;49.092;8.516;2022-10-16T10:06:45;21.00;80.70
12156;DHT22;6141;49.092;8.516;2022-10-16T10:09:18;21.00;80.10
12156;DHT22;6141;49.092;8.516;2022-10-16T10:11:51;21.10;81.20
12156;DHT22;6141;49.092;8.516;2022-10-16T10:15:10;21.20;80.90
12156;DHT22;6141;49.092;8.516;2022-10-16T10:19:50;21.30;79.60
12156;DHT22;6141;49.092;8.516;2022-10-16T10:25:53;21.60;79.50
12156;DHT22;6141;49.092;8.516;2022-10-16T14:03:20;23.80;69.00
12156;DHT22;6141;49.092;8.516;2022-10-16T16:44:47;22.40;72.30
12156;DHT22;6141;49.092;8.516;2022-10-16T16:47:16;22.40;72.70
12156;DHT22;6141;49.092;8.516;2022-10-16T16:49:57;22.30;73.50
12156;DHT22;6141;49.092;8.516;2022-10-16T16:52:39;22.10;72.90
12156;DHT22;6141;49.092;8.516;2022-10-16T16:55:27;22.00;73.30
12156;DHT22;6141;49.092;8.516;2022-10-16T16:57:59;21.90;72.60
12156;DHT22;6141;49.092;8.516;2022-10-16T17:00:31;21.90;73.50
12156;DHT22;6141;49.092;8.516;2022-10-16T17:03:03;21.70;72.40
12156;DHT22;6141;49.092;8.516;2022-10-16T17:05:33;21.50;73.40
12156;DHT22;6141;49.092;8.516;2022-10-16T17:08:02;21.50;73.20
12156;DHT22;6141;49.092;8.516;2022-10-16T17:10:31;21.40;73.80
12156;DHT22;6141;49.092;8.516;2022-10-16T17:13:09;21.30;73.90
12156;DHT22;6141;49.092;8.516;2022-10-16T17:15:50;21.30;74.10
12156;DHT22;6141;49.092;8.516;2022-10-16T17:18:59;21.20;73.80
12156;DHT22;6141;49.092;8.516;2022-10-16T17:34:36;21.00;75.00
12156;DHT22;6141;49.092;8.516;2022-10-16T17:37:10;20.90;75.00
12156;DHT22;6141;49.092;8.516;2022-10-16T17:39:51;21.00;75.30
12156;DHT22;6141;49.092;8.516;2022-10-16T17:42:32;20.90;75.70
12156;DHT22;6141;49.092;8.516;2022-10-16T17:46:02;20.80;74.80
12156;DHT22;6141;49.092;8.516;2022-10-16T17:49:00;20.50;76.00
12156;DHT22;6141;49.092;8.516;2022-10-16T17:51:33;20.50;76.00
12156;DHT22;6141;49.092;8.516;2022-10-16T17:54:02;20.30;75.80
12156;DHT22;6141;49.092;8.516;2022-10-16T17:56:32;20.10;75.60
12156;DHT22;6141;49.092;8.516;2022-10-16T17:59:09;20.10;76.70
12156;DHT22;6141;49.092;8.516;2022-10-16T18:01:41;20.00;76.90
12156;DHT22;6141;49.092;8.516;2022-10-16T18:07:49;20.10;77.20
12156;DHT22;6141;49.092;8.516;2022-10-16T18:09:27;20.20;76.40
12156;DHT22;6141;49.092;8.516;2022-10-16T18:12:30;20.20;75.70
12156;DHT22;6141;49.092;8.516;2022-10-16T18:15:18;20.00;76.20
12156;DHT22;6141;49.092;8.516;2022-10-16T18:17:49;20.00;76.70
12156;DHT22;6141;49.092;8.516;2022-10-16T18:20:55;19.90;77.40
12156;DHT22;6141;49.092;8.516;2022-10-16T18:23:25;20.00;77.20
12156;DHT22;6141;49.092;8.516;2022-10-16T18:26:04;20.10;78.40
12156;DHT22;6141;49.092;8.516;2022-10-16T18:28:33;20.20;77.10
12156;DHT22;6141;49.092;8.516;2022-10-16T18:31:21;20.20;77.40
12156;DHT22;6141;49.092;8.516;2022-10-16T18:35:15;20.20;77.00
12156;DHT22;6141;49.092;8.516;2022-10-16T18:37:53;20.30;77.00
12156;DHT22;6141;49.092;8.516;2022-10-16T18:40:36;20.30;77.00
12156;DHT22;6141;49.092;8.516;2022-10-16T18:43:09;20.30;77.00
12156;DHT22;6141;49.092;8.516;2022-10-16T18:45:40;20.30;76.90
12156;DHT22;6141;49.092;8.516;2022-10-16T18:48:15;20.30;76.80
12156;DHT22;6141;49.092;8.516;2022-10-16T18:50:44;20.20;76.80
12156;DHT22;6141;49.092;8.516;2022-10-16T18:53:13;20.20;77.20
12156;DHT22;6141;49.092;8.516;2022-10-16T18:55:42;19.80;78.70
12156;DHT22;6141;49.092;8.516;2022-10-16T18:58:17;19.80;78.60
12156;DHT22;6141;49.092;8.516;2022-10-16T19:00:47;19.90;78.10
12156;DHT22;6141;49.092;8.516;2022-10-16T19:03:17;19.80;77.80
12156;DHT22;6141;49.092;8.516;2022-10-16T19:05:51;19.70;78.40
12156;DHT22;6141;49.092;8.516;2022-10-16T19:08:25;19.80;79.40
12156;DHT22;6141;49.092;8.516;2022-10-16T19:10:53;19.50;79.90
12156;DHT22;6141;49.092;8.516;2022-10-16T19:13:32;19.70;79.80
12156;DHT22;6141;49.092;8.516;2022-10-16T19:16:16;19.80;79.70
12156;DHT22;6141;49.092;8.516;2022-10-16T19:18:48;19.70;78.60
12156;DHT22;6141;49.092;8.516;2022-10-16T19:21:18;19.60;78.30
12156;DHT22;6141;49.092;8.516;2022-10-16T19:23:50;19.60;78.90
12156;DHT22;6141;49.092;8.516;2022-10-16T19:26:20;19.60;79.30
12156;DHT22;6141;49.092;8.516;2022-10-16T19:29:21;19.60;78.90
12156;DHT22;6141;49.092;8.516;2022-10-16T19:31:53;19.70;78.20
12156;DHT22;6141;49.092;8.516;2022-10-16T19:34:23;19.60;76.80
12156;DHT22;6141;49.092;8.516;2022-10-16T19:36:56;19.40;77.90
12156;DHT22;6141;49.092;8.516;2022-10-16T19:39:30;19.50;77.90
12156;DHT22;6141;49.092;8.516;2022-10-16T19:41:58;19.50;76.80
12156;DHT22;6141;49.092;8.516;2022-10-16T19:44:31;19.70;77.60
12156;DHT22;6141;49.092;8.516;2022-10-16T19:47:00;19.70;77.40
12156;DHT22;6141;49.092;8.516;2022-10-16T19:49:31;19.50;76.80
12156;DHT22;6141;49.092;8.516;2022-10-16T19:52:01;19.60;77.50
12156;DHT22;6141;49.092;8.516;2022-10-16T19:54:50;19.60;77.20
12156;DHT22;6141;49.092;8.516;2022-10-16T19:57:20;19.60;77.10
12156;DHT22;6141;49.092;8.516;2022-10-16T19:59:52;19.60;76.10
12156;DHT22;6141;49.092;8.516;2022-10-16T20:02:22;19.60;76.10
12156;DHT22;6141;49.092;8.516;2022-10-16T20:04:55;19.60;76.60
12156;DHT22;6141;49.092;8.516;2022-10-16T20:07:27;19.50;75.90
12156;DHT22;6141;49.092;8.516;2022-10-16T20:10:00;19.60;76.00
12156;DHT22;6141;49.092;8.516;2022-10-16T20:12:37;19.40;75.80
12156;DHT22;6141;49.092;8.516;2022-10-16T20:15:13;19.40;75.40
12156;DHT22;6141;49.092;8.516;2022-10-16T20:17:49;19.40;75.00
12156;DHT22;6141;49.092;8.516;2022-10-16T20:20:30;19.50;75.10
12156;DHT22;6141;49.092;8.516;2022-10-16T20:23:00;19.50;75.10
12156;DHT22;6141;49.092;8.516;2022-10-16T20:25:33;19.30;75.80
12156;DHT22;6141;49.092;8.516;2022-10-16T20:28:03;19.20;75.30
12156;DHT22;6141;49.092;8.516;2022-10-16T20:30:41;19.20;75.60
12156;DHT22;6141;49.092;8.516;2022-10-16T20:33:20;19.30;75.50
12156;DHT22;6141;49.092;8.516;2022-10-16T20:35:50;19.20;75.20
12156;DHT22;6141;49.092;8.516;2022-10-16T20:38:19;19.10;75.60
12156;DHT22;6141;49.092;8.516;2022-10-16T20:41:02;18.90;74.60
12156;DHT22;6141;49.092;8.516;2022-10-16T20:43:35;18.80;74.50
12156;DHT22;6141;49.092;8.516;2022-10-16T20:46:10;18.70;76.30
12156;DHT22;6141;49.092;8.516;2022-10-16T20:48:42;18.70;75.60
12156;DHT22;6141;49.092;8.516;2022-10-16T20:51:20;18.80;75.90
12156;DHT22;6141;49.092;8.516;2022-10-16T20:54:04;18.70;75.50
12156;DHT22;6141;49.092;8.516;2022-10-16T20:56:35;18.80;76.10
12156;DHT22;6141;49.092;8.516;2022-10-16T20:59:53;18.90;75.70
12156;DHT22;6141;49.092;8.516;2022-10-16T21:03:04;18.80;75.50
12156;DHT22;6141;49.092;8.516;2022-10-16T21:05:42;18.70;74.90
12156;DHT22;6141;49.092;8.516;2022-10-16T21:08:16;18.70;75.90
12156;DHT22;6141;49.092;8.516;2022-10-16T21:10:49;18.90;75.20
12156;DHT22;6141;49.092;8.516;2022-10-16T21:13:23;18.80;74.50
12156;DHT22;6141;49.092;8.516;2022-10-16T21:15:57;18.80;74.50
12156;DHT22;6141;49.092;8.516;2022-10-16T21:22:54;18.50;74.30
12156;DHT22;6141;49.092;8.516;2022-10-16T21:25:47;18.20;74.80
12156;DHT22;6141;49.092;8.516;2022-10-16T21:28:25;18.10;76.50
12156;DHT22;6141;49.092;8.516;2022-10-16T21:31:15;18.00;76.10
12156;DHT22;6141;49.092;8.516;2022-10-16T21:34:00;17.90;76.90
12156;DHT22;6141;49.092;8.516;2022-10-16T21:37:00;18.00;77.80
12156;DHT22;6141;49.092;8.516;2022-10-16T21:39:59;17.80;79.00
12156;DHT22;6141;49.092;8.516;2022-10-16T21:42:37;18.10;78.20
12156;DHT22;6141;49.092;8.516;2022-10-16T21:45:17;18.10;77.40
12156;DHT22;6141;49.092;8.516;2022-10-16T21:47:59;18.20;76.70
12156;DHT22;6141;49.092;8.516;2022-10-16T21:50:50;18.10;75.70
12156;DHT22;6141;49.092;8.516;2022-10-16T21:53:34;18.00;75.70
12156;DHT22;6141;49.092;8.516;2022-10-16T21:56:16;17.80;75.40
12156;DHT22;6141;49.092;8.516;2022-10-16T21:59:00;17.60;76.90
12156;DHT22;6141;49.092;8.516;2022-10-16T22:01:55;17.40;78.10
12156;DHT22;6141;49.092;8.516;2022-10-16T22:04:29;17.30;78.70
12156;DHT22;6141;49.092;8.516;2022-10-16T22:07:00;17.30;78.00
12156;DHT22;6141;49.092;8.516;2022-10-16T22:09:32;17.30;78.30
12156;DHT22;6141;49.092;8.516;2022-10-16T22:12:17;17.30;78.00
12156;DHT22;6141;49.092;8.516;2022-10-16T22:15:13;17.60;78.30
12156;DHT22;6141;49.092;8.516;2022-10-16T22:18:05;17.60;76.70
12156;DHT22;6141;49.092;8.516;2022-10-16T22:20:46;17.70;76.40
12156;DHT22;6141;49.092;8.516;2022-10-16T22:23:24;17.90;76.60
12156;DHT22;6141;49.092;8.516;2022-10-16T22:26:38;18.00;76.50
12156;DHT22;6141;49.092;8.516;2022-10-16T22:29:43;17.90;77.20
12156;DHT22;6141;49.092;8.516;2022-10-16T22:32:24;18.00;76.90
12156;DHT22;6141;49.092;8.516;2022-10-16T22:35:05;17.70;74.60
12156;DHT22;6141;49.092;8.516;2022-10-16T22:37:43;17.80;76.90
12156;DHT22;6141;49.092;8.516;2022-10-16T22:40:12;17.60;75.40
12156;DHT22;6141;49.092;8.516;2022-10-16T22:42:49;17.70;75.70
12156;DHT22;6141;49.092;8.516;2022-10-16T22:45:24;17.60;75.40
12156;DHT22;6141;49.092;8.516;2022-10-16T22:48:03;17.70;75.10
12156;DHT22;6141;49.092;8.516;2022-10-16T22:50:50;17.80;74.80
12156;DHT22;6141;49.092;8.516;2022-10-16T22:53:35;17.90;74.10
12156;DHT22;6141;49.092;8.516;2022-10-16T22:56:19;18.00;73.80
12156;DHT22;6141;49.092;8.516;2022-10-16T22:59:00;17.70;73.60
12156;DHT22;6141;49.092;8.516;2022-10-16T23:01:40;17.40;73.30
12156;DHT22;6141;49.092;8.516;2022-10-16T23:04:13;17.10;74.80
12156;DHT22;6141;49.092;8.516;2022-10-16T23:06:48;17.10;76.00
12156;DHT22;6141;49.092;8.516;2022-10-16T23:09:30;17.20;74.70
12156;DHT22;6141;49.092;8.516;2022-10-16T23:12:19;17.40;75.20
12156;DHT22;6141;49.092;8.516;2022-10-16T23:14:57;17.20;74.60
12156;DHT22;6141;49.092;8.516;2022-10-16T23:17:38;17.20;75.20
12156;DHT22;6141;49.092;8.516;2022-10-16T23:20:13;17.00;75.50
12156;DHT22;6141;49.092;8.516;2022-10-16T23:22:49;16.80;76.20
12156;DHT22;6141;49.092;8.516;2022-10-16T23:25:20;16.70;76.60
12156;DHT22;6141;49.092;8.516;2022-10-16T23:28:15;16.70;77.60
12156;DHT22;6141;49.092;8.516;2022-10-16T23:30:57;16.70;77.50
12156;DHT22;6141;49.092;8.516;2022-10-16T23:33:41;16.90;76.10
12156;DHT22;6141;49.092;8.516;2022-10-16T23:36:37;16.80;76.40
12156;DHT22;6141;49.092;8.516;2022-10-16T23:39:12;16.90;75.80
12156;DHT22;6141;49.092;8.516;2022-10-16T23:41:41;16.80;77.60
12156;DHT22;6141;49.092;8.516;2022-10-16T23:44:17;16.80;76.70
12156;DHT22;6141;49.092;8.516;2022-10-16T23:46:57;16.80;76.40
12156;DHT22;6141;49.092;8.516;2022-10-16T23:49:34;16.90;75.90
12156;DHT22;6141;49.092;8.516;2022-10-16T23:52:06;17.00;75.50
12156;DHT22;6141;49.092;8.516;2022-10-16T23:54:46;16.80;74.90
12156;DHT22;6141;49.092;8.516;2022-10-16T23:57:17;16.50;75.10
12156;DHT22;6141;49.092;8.516;2022-10-16T23:59:48;16.50;76.90
